.
WxDataArchive / Data Records for 2006-10-19
2006-10-18 October 2006 2006-10-20

Data Records for Thursday, 19 October 2006

Time	Temp	Chill	HIndex	Humid	Dewpt	 Wind 	HiWind	WindDir	Rain 	Barom 
-----	----	-----	------	-----	-----	------	------	-------	-----	----- 
00:00	59.8	59.8	59.8	86	55.6	1	3	248	0.00	29.735 
00:05	59.8	59.8	59.8	86	55.6	0	2	248	0.00	29.735 
00:10	59.9	59.9	59.9	86	55.7	1	3	248	0.00	29.735 
00:15	60.1	60.1	60.1	86	55.9	1	4	248	0.00	29.740 
00:20	60.1	60.1	60.1	86	55.9	1	5	248	0.00	29.740 
00:25	60.2	60.2	60.2	86	56.0	1	4	248	0.00	29.740 
00:30	60.4	60.4	60.4	86	56.2	1	3	248	0.00	29.740 
00:35	60.4	60.4	60.4	86	56.2	1	3	248	0.00	29.740 
00:40	60.5	60.5	60.5	86	56.3	1	3	248	0.00	29.740 
00:45	60.5	60.5	60.5	86	56.3	1	4	270	0.00	29.734 
00:50	60.7	60.7	60.7	86	56.5	1	3	270	0.00	29.734 
00:55	60.7	60.7	60.7	86	56.5	2	4	270	0.00	29.734 
01:00	60.9	60.9	60.9	86	56.7	1	3	270	0.00	29.727 
01:05	61.0	61.0	61.0	86	56.8	2	5	248	0.00	29.727 
01:10	61.2	61.2	61.2	86	57.0	2	6	248	0.00	29.727 
01:15	61.3	61.3	61.3	86	57.1	1	3	248	0.00	29.723 
01:20	61.5	61.5	61.5	86	57.3	2	5	248	0.00	29.723 
01:25	61.5	61.5	61.5	87	57.6	1	4	248	0.00	29.723 
01:30	61.5	61.5	61.5	87	57.6	2	5	248	0.00	29.720 
01:35	61.6	61.6	61.6	87	57.7	1	4	270	0.00	29.720 
01:40	61.6	61.6	61.6	87	57.7	2	5	248	0.00	29.720 
01:45	61.8	61.8	61.8	87	57.9	2	5	248	0.00	29.720 
01:50	61.8	61.8	61.8	87	57.9	2	5	248	0.00	29.720 
01:55	61.8	61.8	61.8	87	57.9	2	5	248	0.00	29.720 
02:00	61.8	61.8	61.8	87	57.9	2	6	270	0.00	29.714 
02:05	61.8	61.8	61.8	87	57.9	2	5	270	0.00	29.714 
02:10	61.8	61.8	61.8	88	58.2	2	4	248	0.00	29.714 
02:15	61.6	61.6	61.6	88	58.0	2	6	248	0.00	29.708 
02:20	61.6	61.6	61.6	88	58.0	2	4	248	0.00	29.708 
02:25	61.6	61.6	61.6	88	58.0	3	5	248	0.00	29.708 
02:30	61.5	61.5	61.5	89	58.2	2	4	248	0.00	29.708 
02:35	61.5	61.5	61.5	89	58.2	2	5	248	0.00	29.708 
02:40	61.5	61.5	61.5	89	58.2	2	5	248	0.00	29.708 
02:45	61.3	61.3	61.3	90	58.3	2	5	248	0.00	29.712 
02:50	60.5	60.5	60.5	88	56.9	2	5	248	0.00	29.712 
02:55	58.3	58.3	58.3	87	54.4	2	5	315	0.00	29.712 
03:00	56.7	56.7	56.7	88	53.2	2	5	315	0.00	29.727 
03:05	55.7	55.7	55.7	89	52.5	2	5	292	0.00	29.727 
03:10	54.7	54.7	54.7	89	51.5	2	3	292	0.00	29.727 
03:15	54.1	54.1	54.1	90	51.2	1	3	315	0.00	29.745 
03:20	53.5	53.5	53.5	91	50.9	1	2	315	0.00	29.745 
03:25	53.2	53.2	53.2	92	50.9	0	2	315	0.00	29.745 
03:30	52.9	52.9	52.9	92	50.6	0	2	315	0.00	29.743 
03:35	52.8	52.8	52.8	93	50.8	0	2	315	0.00	29.743 
03:40	52.5	52.5	52.5	93	50.5	1	3	315	0.00	29.743 
03:45	52.3	52.3	52.3	93	50.3	1	4	292	0.00	29.742 
03:50	52.2	52.2	52.2	93	50.2	1	3	315	0.00	29.742 
03:55	52.2	52.2	52.2	93	50.2	1	5	315	0.00	29.742 
04:00	52.0	52.0	52.0	93	50.0	1	3	315	0.00	29.742 
04:05	51.9	51.9	51.9	93	49.9	1	3	315	0.00	29.742 
04:10	51.9	51.9	51.9	93	49.9	1	2	315	0.00	29.742 
04:15	51.7	51.7	51.7	93	49.7	0	2	315	0.01	29.736 
04:20	51.7	51.7	51.7	93	49.7	0	2	315	0.00	29.736 
04:25	51.7	51.7	51.7	93	49.7	0	2	315	0.00	29.736 
04:30	51.7	51.7	51.7	93	49.7	0	1	315	0.00	29.735 
04:35	51.7	51.7	51.7	94	50.0	0	2	315	0.00	29.735 
04:40	51.6	51.6	51.6	93	49.6	0	1	315	0.00	29.735 
04:45	51.4	51.4	51.4	93	49.4	0	2	315	0.00	29.735 
04:50	51.4	51.4	51.4	93	49.4	0	2	315	0.00	29.735 
04:55	51.4	51.4	51.4	92	49.2	0	2	315	0.00	29.735 
05:00	51.3	51.3	51.3	92	49.1	1	3	270	0.00	29.744 
05:05	51.1	51.1	51.1	92	48.9	1	3	292	0.00	29.744 
05:10	51.1	51.1	51.1	92	48.9	0	1	292	0.00	29.744 
05:15	51.1	51.1	51.1	91	48.6	1	2	292	0.00	29.733 
05:20	51.0	51.0	51.0	91	48.5	0	1	270	0.00	29.733 
05:25	51.0	51.0	51.0	91	48.5	1	3	292	0.00	29.733 
05:30	51.0	51.0	51.0	91	48.5	1	3	315	0.00	29.747 
05:35	50.8	50.8	50.8	92	48.6	0	2	315	0.00	29.747 
05:40	50.8	50.8	50.8	92	48.6	1	4	270	0.00	29.747 
05:45	50.7	50.7	50.7	92	48.5	2	4	270	0.00	29.751 
05:50	50.5	50.5	50.5	92	48.3	1	3	270	0.00	29.751 
05:55	50.2	50.2	50.2	92	48.0	1	3	292	0.00	29.751 
06:00	50.1	50.1	50.1	92	47.9	1	2	315	0.00	29.746 
06:05	49.8	49.8	49.8	92	47.6	1	3	315	0.00	29.746 
06:10	49.6	49.6	49.6	92	47.4	1	3	338	0.00	29.746 
06:15	49.5	49.5	49.5	92	47.3	1	3	315	0.00	29.747 
06:20	49.4	49.4	49.4	92	47.2	1	2	315	0.00	29.747 
06:25	49.4	49.4	49.4	92	47.2	0	3	292	0.00	29.747 
06:30	49.2	49.2	49.2	92	47.0	0	2	292	0.00	29.769 
06:35	49.1	49.1	49.1	92	46.9	0	2	292	0.00	29.769 
06:40	49.1	49.1	49.1	91	46.6	0	2	292	0.00	29.769 
06:45	49.1	49.1	49.1	90	46.3	0	1	292	0.00	29.763 
06:50	48.9	48.9	48.9	90	46.1	0	2	292	0.00	29.763 
06:55	48.9	48.9	48.9	90	46.1	0	1	292	0.00	29.763 
07:00	48.8	48.8	48.8	89	45.7	1	4	270	0.00	29.765 
07:05	48.8	48.8	48.8	88	45.4	0	2	292	0.00	29.765 
07:10	48.6	48.6	48.6	88	45.2	0	3	248	0.00	29.765 
07:15	48.6	48.6	48.6	88	45.2	0	2	248	0.00	29.772 
07:20	48.5	48.5	48.5	88	45.1	0	2	315	0.00	29.772 
07:25	48.5	48.5	48.5	88	45.1	0	2	338	0.00	29.772 
07:30	48.3	48.3	48.3	87	44.6	1	4	292	0.00	29.776 
07:35	48.2	48.2	48.2	88	44.8	0	1	292	0.00	29.776 
07:40	48.0	48.0	48.0	88	44.6	0	1	292	0.00	29.776 
07:45	48.0	48.0	48.0	88	44.6	0	4	292	0.00	29.781 
07:50	47.9	47.9	47.9	88	44.5	1	4	270	0.00	29.781 
07:55	47.7	47.7	47.7	87	44.0	0	3	292	0.00	29.781 
08:00	47.6	47.6	47.6	88	44.2	0	1	292	0.00	29.772 
08:05	47.6	47.6	47.6	88	44.2	0	2	292	0.00	29.772 
08:10	47.6	47.6	47.6	87	43.9	1	4	292	0.00	29.772 
08:15	47.4	47.4	47.4	87	43.7	1	3	292	0.00	29.784 
08:20	47.4	47.4	47.4	86	43.4	1	2	292	0.00	29.784 
08:25	47.3	47.3	47.3	85	43.0	1	2	315	0.00	29.784 
08:30	47.3	47.3	47.3	84	42.7	1	3	270	0.00	29.788 
08:35	47.3	47.3	47.3	85	43.0	0	2	315	0.00	29.788 
08:40	47.1	47.1	47.1	85	42.8	1	4	315	0.00	29.788 
08:45	47.0	47.0	47.0	86	43.0	1	3	315	0.00	29.810 
08:50	46.8	46.8	46.8	86	42.8	1	3	315	0.00	29.810 
08:55	46.8	46.8	46.8	86	42.8	0	2	315	0.00	29.810 
09:00	46.8	46.8	46.8	85	42.5	1	2	315	0.00	29.818 
09:05	46.8	46.8	46.8	85	42.5	1	3	315	0.00	29.818 
09:10	46.7	46.7	46.7	85	42.4	1	3	338	0.00	29.818 
09:15	46.5	46.5	46.5	86	42.5	0	2	338	0.00	29.796 
09:20	46.4	46.4	46.4	86	42.4	1	2	338	0.00	29.796 
09:25	46.4	46.4	46.4	86	42.4	1	3	315	0.00	29.796 
09:30	46.2	46.2	46.2	86	42.2	1	3	338	0.00	29.800 
09:35	46.2	46.2	46.2	87	42.5	0	1	338	0.00	29.800 
09:40	46.2	46.2	46.2	88	42.8	0	2	338	0.00	29.800 
09:45	46.2	46.2	46.2	88	42.8	0	2	338	0.00	29.801 
09:50	46.1	46.1	46.1	88	42.7	0	3	338	0.00	29.801 
09:55	46.0	46.0	46.0	88	42.6	1	3	270	0.00	29.801 
10:00	46.0	46.0	46.0	88	42.6	0	1	270	0.00	29.794 
10:05	46.0	46.0	46.0	89	42.9	0	3	270	0.00	29.794 
10:10	46.0	46.0	46.0	89	42.9	0	3	270	0.00	29.794 
10:15	45.8	45.8	45.8	89	42.7	0	1	292	0.00	29.808 
10:20	46.0	46.0	46.0	89	42.9	1	2	292	0.00	29.808 
10:25	46.0	46.0	46.0	89	42.9	1	5	270	0.00	29.808 
10:30	46.0	46.0	46.0	90	43.2	0	1	292	0.00	29.791 
10:35	45.8	45.8	45.8	89	42.7	0	2	315	0.01	29.791 
10:40	45.8	45.8	45.8	90	43.0	0	2	315	0.00	29.791 
10:45	46.0	46.0	46.0	91	43.5	0	2	315	0.00	29.818 
10:50	46.1	46.1	46.1	91	43.6	0	1	315	0.00	29.818 
10:55	46.1	46.1	46.1	90	43.3	0	2	292	0.00	29.818 
11:00	46.0	46.0	46.0	89	42.9	0	2	292	0.00	29.812 
11:05	45.8	45.8	45.8	90	43.0	0	1	292	0.00	29.812 
11:10	45.8	45.8	45.8	89	42.7	0	1	292	0.00	29.812 
11:15	45.8	45.8	45.8	88	42.5	0	2	292	0.00	29.818 
11:20	46.0	46.0	46.0	88	42.6	0	1	292	0.00	29.818 
11:25	46.1	46.1	46.1	88	42.7	0	1	292	0.00	29.818 
11:30	46.1	46.1	46.1	87	42.4	1	2	292	0.00	29.834 
11:35	46.1	46.1	46.1	86	42.1	0	1	292	0.00	29.834 
11:40	46.1	46.1	46.1	86	42.1	0	3	338	0.00	29.834 
11:45	46.1	46.1	46.1	86	42.1	0	1	338	0.00	29.827 
11:50	46.1	46.1	46.1	86	42.1	0	1	338	0.00	29.827 
11:55	46.1	46.1	46.1	85	41.8	1	3	338	0.00	29.827 
12:00	46.1	46.1	46.1	85	41.8	1	2	270	0.00	29.817 
12:05	46.4	46.4	46.4	86	42.4	0	2	292	0.00	29.817 
12:10	46.4	46.4	46.4	84	41.8	1	4	292	0.00	29.817 
12:15	46.7	46.7	46.7	84	42.1	0	2	292	0.00	29.812 
12:20	46.8	46.8	46.8	84	42.2	1	2	315	0.00	29.812 
12:25	47.0	47.0	47.0	82	41.8	1	2	315	0.00	29.812 
12:30	47.0	47.0	47.0	81	41.5	1	3	292	0.00	29.804 
12:35	46.8	46.8	46.8	82	41.6	1	3	315	0.00	29.804 
12:40	47.0	47.0	47.0	83	42.1	1	3	315	0.00	29.804 
12:45	47.1	47.1	47.1	82	41.9	1	2	292	0.00	29.801 
12:50	47.3	47.3	47.3	82	42.1	1	4	292	0.00	29.801 
12:55	47.0	47.0	47.0	81	41.5	1	4	248	0.00	29.801 
13:00	47.1	47.1	47.1	81	41.6	1	3	292	0.00	29.800 
13:05	47.1	47.1	47.1	81	41.6	1	3	292	0.00	29.800 
13:10	47.3	47.3	47.3	81	41.8	1	2	292	0.00	29.800 
13:15	47.3	47.3	47.3	79	41.1	1	5	270	0.00	29.798 
13:20	47.1	47.1	47.1	79	40.9	1	3	0	0.00	29.798 
13:25	47.0	47.0	47.0	80	41.2	1	3	270	0.00	29.798 
13:30	47.0	47.0	47.0	81	41.5	0	2	315	0.00	29.785 
13:35	46.8	46.8	46.8	79	40.6	1	2	315	0.00	29.785 
13:40	46.8	46.8	46.8	80	41.0	1	3	315	0.00	29.785 
13:45	46.5	46.5	46.5	80	40.7	1	5	315	0.00	29.784 
13:50	46.7	46.7	46.7	80	40.9	1	2	315	0.00	29.784 
13:55	46.7	46.7	46.7	81	41.2	1	4	315	0.00	29.784 
14:00	46.7	46.7	46.7	80	40.9	1	3	315	0.00	29.769 
14:05	46.5	46.5	46.5	80	40.7	1	2	292	0.00	29.769 
14:10	46.5	46.5	46.5	80	40.7	1	3	315	0.00	29.769 
14:15	46.7	46.7	46.7	80	40.9	1	3	315	0.00	29.768 
14:20	46.7	46.7	46.7	80	40.9	0	2	292	0.00	29.768 
14:25	46.5	46.5	46.5	81	41.0	1	3	292	0.00	29.768 
14:30	46.5	46.5	46.5	79	40.3	1	4	315	0.00	29.766 
14:35	47.0	47.0	47.0	80	41.2	1	2	315	0.00	29.766 
14:40	47.0	47.0	47.0	78	40.5	1	3	315	0.00	29.766 
14:45	46.8	46.8	46.8	78	40.3	1	2	292	0.00	29.763 
14:50	46.7	46.7	46.7	79	40.5	0	2	292	0.00	29.763 
14:55	46.5	46.5	46.5	80	40.7	0	2	292	0.00	29.763 
15:00	46.4	46.4	46.4	79	40.2	1	4	0	0.00	29.774 
15:05	46.5	46.5	46.5	78	40.0	1	2	315	0.00	29.774 
15:10	46.7	46.7	46.7	79	40.5	0	1	315	0.00	29.774 
15:15	46.7	46.7	46.7	78	40.2	0	2	315	0.00	29.801 
15:20	46.7	46.7	46.7	79	40.5	1	2	315	0.00	29.801 
15:25	46.5	46.5	46.5	79	40.3	0	2	315	0.00	29.801 
15:30	46.4	46.4	46.4	78	39.9	1	3	338	0.00	29.803 
15:35	46.4	46.4	46.4	79	40.2	0	2	315	0.00	29.803 
15:40	46.5	46.5	46.5	79	40.3	1	3	315	0.00	29.803 
15:45	46.4	46.4	46.4	79	40.2	1	3	315	0.00	29.793 
15:50	46.1	46.1	46.1	79	40.0	1	2	315	0.00	29.793 
15:55	46.0	46.0	46.0	79	39.9	0	2	315	0.00	29.793 
16:00	46.0	46.0	46.0	79	39.9	0	1	315	0.00	29.778 
16:05	46.4	46.4	46.4	80	40.6	0	1	315	0.00	29.778 
16:10	46.7	46.7	46.7	79	40.5	0	2	338	0.00	29.778 
16:15	46.8	46.8	46.8	77	40.0	0	2	338	0.00	29.777 
16:20	46.8	46.8	46.8	77	40.0	0	0	---	0.00	29.777 
16:25	46.7	46.7	46.7	76	39.5	0	2	338	0.00	29.777 
16:30	46.5	46.5	46.5	75	39.0	0	2	338	0.00	29.768 
16:35	46.4	46.4	46.4	77	39.6	0	1	338	0.00	29.768 
16:40	46.4	46.4	46.4	77	39.6	0	1	338	0.00	29.768 
16:45	46.4	46.4	46.4	77	39.6	0	2	338	0.00	29.770 
16:50	46.4	46.4	46.4	76	39.3	0	1	338	0.00	29.770 
16:55	46.4	46.4	46.4	77	39.6	0	2	338	0.00	29.770 
17:00	46.4	46.4	46.4	76	39.3	1	3	338	0.00	29.764 
17:05	46.2	46.2	46.2	77	39.4	1	3	338	0.00	29.764 
17:10	46.2	46.2	46.2	77	39.4	0	1	338	0.00	29.764 
17:15	46.1	46.1	46.1	76	39.0	0	2	338	0.00	29.765 
17:20	46.1	46.1	46.1	77	39.3	0	4	270	0.00	29.765 
17:25	46.1	46.1	46.1	77	39.3	0	1	292	0.00	29.765 
17:30	46.1	46.1	46.1	77	39.3	0	2	292	0.00	29.771 
17:35	46.1	46.1	46.1	76	39.0	0	2	315	0.00	29.771 
17:40	46.1	46.1	46.1	76	39.0	0	2	338	0.00	29.771 
17:45	46.1	46.1	46.1	76	39.0	0	2	338	0.00	29.771 
17:50	46.1	46.1	46.1	76	39.0	0	1	315	0.00	29.771 
17:55	46.1	46.1	46.1	77	39.3	0	1	315	0.00	29.771 
18:00	46.1	46.1	46.1	77	39.3	0	1	315	0.00	29.770 
18:05	46.1	46.1	46.1	77	39.3	0	1	315	0.00	29.770 
18:10	46.1	46.1	46.1	78	39.6	0	1	315	0.00	29.770 
18:15	46.1	46.1	46.1	78	39.6	0	1	315	0.00	29.766 
18:20	46.0	46.0	46.0	76	38.9	0	1	315	0.00	29.766 
18:25	46.0	46.0	46.0	76	38.9	0	2	315	0.00	29.766 
18:30	46.0	46.0	46.0	76	38.9	0	1	315	0.00	29.768 
18:35	46.0	46.0	46.0	75	38.5	1	4	315	0.00	29.768 
18:40	46.0	46.0	46.0	76	38.9	0	1	270	0.00	29.768 
18:45	46.0	46.0	46.0	77	39.2	0	1	270	0.00	29.773 
18:50	45.8	45.8	45.8	77	39.0	0	1	270	0.00	29.773 
18:55	45.7	45.7	45.7	78	39.2	0	1	292	0.00	29.773 
19:00	45.5	45.5	45.5	77	38.7	0	2	292	0.00	29.770 
19:05	45.5	45.5	45.5	77	38.7	0	1	292	0.00	29.770 
19:10	45.4	45.4	45.4	78	38.9	0	1	292	0.00	29.770 
19:15	45.4	45.4	45.4	78	38.9	0	2	292	0.00	29.768 
19:20	45.2	45.2	45.2	78	38.8	0	2	292	0.00	29.768 
19:25	45.2	45.2	45.2	79	39.1	0	1	292	0.00	29.768 
19:30	45.2	45.2	45.2	79	39.1	0	1	292	0.00	29.780 
19:35	45.1	45.1	45.1	80	39.3	0	2	292	0.00	29.780 
19:40	45.1	45.1	45.1	80	39.3	0	2	292	0.00	29.780 
19:45	44.9	44.9	44.9	81	39.4	0	1	292	0.00	29.787 
19:50	44.9	44.9	44.9	81	39.4	0	0	---	0.00	29.787 
19:55	44.8	44.8	44.8	81	39.3	0	1	292	0.00	29.787 
20:00	44.8	44.8	44.8	82	39.6	0	1	292	0.00	29.784 
20:05	44.8	44.8	44.8	82	39.6	0	1	292	0.00	29.784 
20:10	44.6	44.6	44.6	81	39.1	0	3	112	0.00	29.784 
20:15	44.6	44.6	44.6	82	39.4	0	1	90	0.00	29.779 
20:20	44.5	44.5	44.5	81	39.0	0	1	90	0.00	29.779 
20:25	44.5	44.5	44.5	81	39.0	0	1	90	0.00	29.779 
20:30	44.5	44.5	44.5	81	39.0	0	2	90	0.00	29.783 
20:35	44.5	44.5	44.5	81	39.0	0	1	90	0.00	29.783 
20:40	44.3	44.3	44.3	81	38.8	0	2	45	0.00	29.783 
20:45	44.3	44.3	44.3	80	38.5	0	2	45	0.00	29.777 
20:50	44.3	44.3	44.3	78	37.9	0	2	0	0.00	29.777 
20:55	44.3	44.3	44.3	80	38.5	0	2	0	0.00	29.777 
21:00	44.3	44.3	44.3	79	38.2	0	1	0	0.00	29.785 
21:05	44.2	44.2	44.2	79	38.1	0	2	0	0.00	29.785 
21:10	44.2	44.2	44.2	79	38.1	0	1	45	0.00	29.785 
21:15	44.2	44.2	44.2	77	37.5	0	2	45	0.00	29.792 
21:20	44.3	44.3	44.3	78	37.9	0	1	45	0.00	29.792 
21:25	44.2	44.2	44.2	76	37.1	0	2	45	0.00	29.792 
21:30	44.2	44.2	44.2	77	37.5	0	1	45	0.00	29.783 
21:35	44.2	44.2	44.2	77	37.5	0	1	45	0.00	29.783 
21:40	44.2	44.2	44.2	77	37.5	0	3	135	0.00	29.783 
21:45	44.2	44.2	44.2	77	37.5	0	1	135	0.00	29.798 
21:50	44.2	44.2	44.2	76	37.1	0	1	135	0.00	29.798 
21:55	44.2	44.2	44.2	76	37.1	0	1	338	0.00	29.798 
22:00	44.3	44.3	44.3	75	36.9	0	1	338	0.00	29.808 
22:05	44.3	44.3	44.3	76	37.2	0	1	338	0.00	29.808 
22:10	44.3	44.3	44.3	75	36.9	0	1	338	0.00	29.808 
22:15	44.3	44.3	44.3	75	36.9	0	1	338	0.00	29.801 
22:20	44.3	44.3	44.3	76	37.2	0	0	---	0.00	29.801 
22:25	44.2	44.2	44.2	77	37.5	0	0	---	0.00	29.801 
22:30	44.2	44.2	44.2	77	37.5	0	1	338	0.00	29.802 
22:35	44.2	44.2	44.2	77	37.5	0	0	---	0.00	29.802 
22:40	44.2	44.2	44.2	77	37.5	0	0	---	0.00	29.802 
22:45	44.2	44.2	44.2	78	37.8	0	0	---	0.00	29.804 
22:50	44.2	44.2	44.2	78	37.8	0	0	---	0.00	29.804 
22:55	44.2	44.2	44.2	79	38.1	0	0	---	0.00	29.804 
23:00	44.2	44.2	44.2	79	38.1	0	0	---	0.00	29.793 
23:05	44.1	44.1	44.1	79	38.0	0	1	338	0.00	29.793 
23:10	44.1	44.1	44.1	79	38.0	0	0	---	0.00	29.793 
23:15	44.1	44.1	44.1	79	38.0	0	0	---	0.00	29.784 
23:20	44.1	44.1	44.1	79	38.0	0	1	338	0.00	29.784 
23:25	44.1	44.1	44.1	80	38.3	0	2	338	0.00	29.784 
23:30	43.9	43.9	43.9	79	37.8	0	1	338	0.00	29.778 
23:35	43.9	43.9	43.9	79	37.8	0	1	338	0.00	29.778 
23:40	43.9	43.9	43.9	80	38.1	0	1	338	0.00	29.778 
23:45	43.8	43.8	43.8	80	38.0	0	1	338	0.00	29.758 
23:50	43.8	43.8	43.8	80	38.0	0	0	---	0.00	29.758 
23:55	43.6	43.6	43.6	81	38.2	0	1	338	0.00	29.758 

CoCoRaHS
IN-AL-39
A2 Web Hosting
Creative Commons License
GoDaddy
Look for:

loaded 2017-10-17 00:38:57 • last modified 2010-11-18 10:43:29
Privacy PolicyDisclaimer
• wx.awcolley.com is powered by PmWiki v.2002016 •
• all content (unless otherwise noted) © 2017 A W Colley